Time;durP1;ratioP1;P1;durP2;ratioP2;P2;SDS_P1;SDS_P2;PMS_P1;PMS_P2;Temp;Humidity;BMP_temperature;BMP_pressure;BME280_temperature;BME280_humidity;BME280_pressure;Samples;Min_cycle;Max_cycle;Signal;HPM_P1;HPM_P2
2021/01/22 00:01:42;;;;;;;7.23;1.23;;;5.60;99.90;;;;;;5005160;28;20214;-80
2021/01/22 00:04:08;;;;;;;5.87;1.60;;;5.70;99.90;;;;;;5006849;28;20203;-80
2021/01/22 00:06:35;;;;;;;5.30;1.57;;;5.70;99.90;;;;;;5007174;28;20210;-82
2021/01/22 00:09:01;;;;;;;5.03;0.97;;;5.70;99.90;;;;;;5007407;28;20218;-80
2021/01/22 00:11:27;;;;;;;3.73;1.20;;;5.70;99.90;;;;;;5005911;28;20222;-80
2021/01/22 00:13:53;;;;;;;2.57;0.90;;;5.60;99.90;;;;;;5004996;28;20203;-81
2021/01/22 00:16:21;;;;;;;3.13;0.80;;;5.70;99.90;;;;;;5004377;28;20231;-81
2021/01/22 00:18:47;;;;;;;1.40;0.60;;;5.70;99.90;;;;;;5005968;28;20203;-80
2021/01/22 00:21:13;;;;;;;4.47;1.10;;;5.60;99.90;;;;;;5007333;28;20204;-80
2021/01/22 00:23:40;;;;;;;5.03;0.90;;;5.70;99.90;;;;;;5007044;28;20242;-79
2021/01/22 00:26:06;;;;;;;4.83;0.97;;;5.70;99.90;;;;;;5006936;28;20222;-80
2021/01/22 00:28:33;;;;;;;1.27;0.70;;;5.70;99.90;;;;;;5006448;28;20231;-80
2021/01/22 00:30:59;;;;;;;3.40;0.80;;;5.70;99.90;;;;;;5007831;28;20214;-80
2021/01/22 00:33:27;;;;;;;3.83;0.60;;;5.70;99.90;;;;;;5008183;28;20211;-81
2021/01/22 00:35:53;;;;;;;2.50;1.07;;;5.60;99.90;;;;;;5008050;28;20223;-81
2021/01/22 00:38:19;;;;;;;4.83;1.50;;;5.60;99.90;;;;;;5007808;28;20212;-81
2021/01/22 00:40:45;;;;;;;6.93;2.10;;;5.60;99.90;;;;;;5007586;28;20199;-81
2021/01/22 00:43:12;;;;;;;7.83;2.90;;;5.60;99.90;;;;;;5006710;28;20777;-81
2021/01/22 00:45:38;;;;;;;4.83;2.20;;;5.60;99.90;;;;;;5003910;28;20195;-80
2021/01/22 00:48:06;;;;;;;4.63;1.90;;;5.60;99.90;;;;;;5005479;28;20195;-81
2021/01/22 00:50:33;;;;;;;9.20;1.53;;;5.70;99.90;;;;;;5007220;28;20544;-81
2021/01/22 00:52:59;;;;;;;6.87;1.60;;;5.70;99.90;;;;;;5006863;28;20208;-81
2021/01/22 00:55:26;;;;;;;4.37;1.10;;;5.80;99.90;;;;;;5007171;28;20926;-79
2021/01/22 01:04:48;;;;;;;9.83;2.43;;;5.80;99.90;;;;;;4856723;29;20226;-79
2021/01/22 01:07:15;;;;;;;14.43;3.77;;;5.80;99.90;;;;;;4998821;28;20879;-79
2021/01/22 01:09:42;;;;;;;22.97;3.57;;;5.80;99.90;;;;;;5005055;28;20215;-79
2021/01/22 01:12:08;;;;;;;11.77;2.80;;;5.70;99.90;;;;;;5005648;28;20596;-79
2021/01/22 01:14:35;;;;;;;10.60;1.80;;;5.70;99.90;;;;;;4993350;28;20223;-79
2021/01/22 01:17:01;;;;;;;6.33;1.93;;;5.60;99.90;;;;;;4985818;28;20223;-81
2021/01/22 01:19:27;;;;;;;6.57;2.67;;;5.60;99.90;;;;;;4986343;28;20212;-78
2021/01/22 01:21:53;;;;;;;13.33;2.90;;;5.60;99.90;;;;;;4988563;28;20208;-78
2021/01/22 01:24:20;;;;;;;7.03;2.80;;;5.70;99.90;;;;;;5004897;28;20243;-80
2021/01/22 01:26:47;;;;;;;5.87;1.70;;;5.60;99.90;;;;;;5004954;28;20203;-79
2021/01/22 01:29:13;;;;;;;10.93;3.57;;;5.60;99.90;;;;;;5005676;28;20250;-79
2021/01/22 01:31:39;;;;;;;12.43;4.37;;;5.60;99.90;;;;;;5003883;28;20206;-79
2021/01/22 01:34:05;;;;;;;12.23;4.77;;;5.60;99.90;;;;;;4986236;28;20208;-81
2021/01/22 01:36:32;;;;;;;10.83;3.23;;;5.70;99.90;;;;;;4984976;28;20226;-79
2021/01/22 01:38:58;;;;;;;8.10;2.13;;;5.70;99.90;;;;;;4985885;28;20227;-80
2021/01/22 01:41:25;;;;;;;7.63;2.43;;;5.70;99.90;;;;;;4997036;28;20207;-80
2021/01/22 01:43:52;;;;;;;8.80;2.83;;;5.70;99.90;;;;;;5003112;28;20757;-80
2021/01/22 01:46:18;;;;;;;13.67;2.50;;;5.80;99.90;;;;;;5003067;28;20222;-80
2021/01/22 01:48:44;;;;;;;6.77;1.60;;;5.80;99.90;;;;;;5004610;28;20222;-80
2021/01/22 01:51:11;;;;;;;5.43;1.40;;;5.80;99.90;;;;;;5000898;28;20204;-80
2021/01/22 01:53:37;;;;;;;4.07;1.50;;;5.80;99.90;;;;;;4984357;28;20258;-79
2021/01/22 01:56:04;;;;;;;11.80;3.17;;;5.90;99.90;;;;;;4985659;28;20231;-79
2021/01/22 01:58:31;;;;;;;6.00;2.20;;;5.80;99.90;;;;;;4985207;28;20587;-79
2021/01/22 02:00:58;;;;;;;9.17;2.60;;;5.80;99.90;;;;;;4985251;28;20519;-79
2021/01/22 02:03:24;;;;;;;12.17;3.70;;;5.80;99.90;;;;;;4985558;28;20242;-79
2021/01/22 02:05:51;;;;;;;13.27;4.43;;;5.80;99.90;;;;;;4985699;28;20207;-79
2021/01/22 02:08:18;;;;;;;11.70;2.97;;;5.80;99.90;;;;;;4997797;28;20744;-79
2021/01/22 02:10:45;;;;;;;15.10;3.63;;;5.90;99.90;;;;;;5005035;28;20204;-78
2021/01/22 02:13:13;;;;;;;10.73;2.80;;;6.10;99.90;;;;;;5004710;28;20542;-79
2021/01/22 02:15:41;;;;;;;14.50;2.13;;;6.20;99.90;;;;;;5004484;28;20921;-82
2021/01/22 02:18:09;;;;;;;8.93;2.63;;;6.30;99.90;;;;;;4990539;28;20227;-79
2021/01/22 02:20:46;;;;;;;18.90;3.13;;;6.40;99.90;;;;;;4984470;28;20216;-78
2021/01/22 02:23:13;;;;;;;13.40;3.03;;;6.40;99.90;;;;;;4997876;28;20246;-79
2021/01/22 02:25:42;;;;;;;8.27;2.10;;;6.30;99.90;;;;;;5004230;28;20496;-80
2021/01/22 02:28:12;;;;;;;8.33;2.43;;;6.30;99.90;;;;;;5004906;28;20219;-79
2021/01/22 02:30:41;;;;;;;12.67;2.47;;;6.30;99.90;;;;;;5003528;28;20222;-80
2021/01/22 02:33:08;;;;;;;9.77;2.20;;;6.30;99.90;;;;;;5005335;28;20207;-79
2021/01/22 02:35:35;;;;;;;10.13;2.60;;;6.30;99.90;;;;;;4997959;28;20302;-81
2021/01/22 02:38:03;;;;;;;14.23;2.33;;;6.20;99.90;;;;;;4988687;28;20259;-79
2021/01/22 02:40:30;;;;;;;12.07;2.40;;;6.20;99.90;;;;;;4995467;28;20204;-80
2021/01/22 02:42:58;;;;;;;8.07;2.03;;;6.20;99.90;;;;;;5008490;28;20203;-79
2021/01/22 02:45:26;;;;;;;8.83;2.13;;;6.20;99.90;;;;;;5007948;28;20207;-80
2021/01/22 02:47:52;;;;;;;7.00;2.07;;;6.30;99.90;;;;;;5006989;28;20210;-79
2021/01/22 02:50:30;;;;;;;15.90;3.00;;;6.30;99.90;;;;;;4988486;28;20207;-79
2021/01/22 02:52:59;;;;;;;9.03;1.97;;;6.30;99.90;;;;;;4988643;28;20255;-79
2021/01/22 02:55:27;;;;;;;10.70;2.23;;;6.30;99.90;;;;;;4987368;28;20390;-79
2021/01/22 02:57:58;;;;;;;17.50;3.03;;;6.30;99.90;;;;;;4988494;28;20211;-78
2021/01/22 03:00:30;;;;;;;11.17;2.10;;;6.30;99.90;;;;;;4987132;28;20921;-79
2021/01/22 03:03:07;;;;;;;7.33;1.67;;;6.30;99.90;;;;;;4987404;28;20227;-78
2021/01/22 03:05:35;;;;;;;10.97;2.33;;;6.30;99.90;;;;;;4987912;28;20219;-81
2021/01/22 03:08:06;;;;;;;8.83;1.93;;;6.40;99.90;;;;;;5002713;28;20207;-79
2021/01/22 03:10:34;;;;;;;13.53;3.10;;;6.30;99.90;;;;;;5006695;28;20535;-78
2021/01/22 03:13:02;;;;;;;9.17;2.67;;;6.30;99.90;;;;;;5006823;28;20812;-79
2021/01/22 03:15:30;;;;;;;8.70;2.40;;;6.40;99.90;;;;;;5005488;28;20214;-79
2021/01/22 03:18:10;;;;;;;14.77;2.43;;;6.40;99.90;;;;;;5007091;28;20261;-81
2021/01/22 03:20:37;;;;;;;12.47;2.27;;;6.40;99.90;;;;;;5006795;28;20191;-79
2021/01/22 03:23:04;;;;;;;7.20;2.80;;;6.40;99.90;;;;;;5005271;28;20680;-82
2021/01/22 03:25:30;;;;;;;12.90;2.87;;;6.40;99.90;;;;;;5006963;28;20211;-78
2021/01/22 03:27:56;;;;;;;11.87;2.10;;;6.30;99.90;;;;;;5006492;28;20230;-79
2021/01/22 03:30:24;;;;;;;8.07;2.40;;;6.20;99.90;;;;;;5003138;28;20297;-80
2021/01/22 03:32:51;;;;;;;9.50;1.90;;;6.10;99.90;;;;;;5004679;28;20251;-80
2021/01/22 03:35:17;;;;;;;11.50;2.07;;;6.20;99.90;;;;;;5003517;28;20262;-80
2021/01/22 03:37:44;;;;;;;9.53;2.30;;;6.20;99.90;;;;;;5004086;28;20227;-78
2021/01/22 03:40:11;;;;;;;10.47;2.53;;;6.20;99.90;;;;;;5006156;28;20210;-78
2021/01/22 03:42:37;;;;;;;11.03;3.10;;;6.20;99.90;;;;;;5005212;28;20227;-78
2021/01/22 03:45:04;;;;;;;9.17;2.97;;;6.10;99.90;;;;;;4985580;28;20264;-79
2021/01/22 03:47:30;;;;;;;12.23;2.80;;;6.10;99.90;;;;;;4986278;28;20208;-78
2021/01/22 03:49:58;;;;;;;13.80;3.50;;;6.00;99.90;;;;;;4986361;28;20262;-79
2021/01/22 03:52:24;;;;;;;11.43;3.07;;;6.00;99.90;;;;;;4985940;28;20207;-78
2021/01/22 03:54:50;;;;;;;9.33;3.27;;;5.90;99.90;;;;;;4985571;28;20211;-80
2021/01/22 03:57:16;;;;;;;9.83;3.40;;;5.80;99.90;;;;;;4984816;28;20445;-81
2021/01/22 03:59:43;;;;;;;13.77;3.57;;;5.80;99.90;;;;;;4997873;28;20615;-80
2021/01/22 04:02:09;;;;;;;12.20;3.13;;;5.90;99.90;;;;;;5003928;28;20599;-80
2021/01/22 04:04:35;;;;;;;9.27;3.10;;;5.90;99.90;;;;;;5002925;28;20214;-81
2021/01/22 04:07:02;;;;;;;12.97;3.43;;;5.90;99.90;;;;;;5006592;28;20307;-80
2021/01/22 04:09:29;;;;;;;9.40;2.90;;;5.90;99.90;;;;;;5006197;28;20203;-81
2021/01/22 04:11:56;;;;;;;9.57;3.00;;;6.00;99.90;;;;;;5007118;28;20582;-81
2021/01/22 04:14:22;;;;;;;12.33;3.30;;;6.10;99.90;;;;;;5008032;28;20204;-81
2021/01/22 04:16:49;;;;;;;11.80;2.70;;;6.20;99.90;;;;;;5006916;28;20226;-77
2021/01/22 04:19:15;;;;;;;15.80;3.97;;;6.20;99.90;;;;;;5005879;28;20250;-80
2021/01/22 04:21:41;;;;;;;11.00;3.17;;;6.20;99.90;;;;;;5006547;28;20203;-81
2021/01/22 04:24:08;;;;;;;10.33;2.37;;;6.20;99.90;;;;;;5005828;28;20235;-81
2021/01/22 04:26:35;;;;;;;17.33;3.30;;;6.20;99.90;;;;;;5002903;28;20204;-81
2021/01/22 04:29:01;;;;;;;20.00;2.97;;;6.20;99.90;;;;;;4987050;28;20235;-78
2021/01/22 04:31:27;;;;;;;11.63;3.43;;;6.20;99.90;;;;;;4987053;28;20211;-81
2021/01/22 04:33:54;;;;;;;12.83;4.40;;;6.20;99.90;;;;;;4986699;28;20200;-82
2021/01/22 04:36:20;;;;;;;15.93;3.03;;;6.20;99.90;;;;;;4987246;28;20231;-82
2021/01/22 04:38:46;;;;;;;12.90;3.03;;;6.20;99.90;;;;;;5007672;28;20211;-78
2021/01/22 04:41:13;;;;;;;16.60;4.10;;;6.20;99.90;;;;;;5004299;28;20203;-78
2021/01/22 04:43:44;;;;;;;13.97;2.77;;;6.20;99.90;;;;;;4987634;28;20203;-80
2021/01/22 04:46:11;;;;;;;12.70;2.77;;;6.10;99.90;;;;;;4987464;28;20346;-80
2021/01/22 04:48:38;;;;;;;12.73;2.50;;;6.10;99.90;;;;;;4987109;28;20368;-79
2021/01/22 04:51:05;;;;;;;15.67;3.20;;;6.20;99.90;;;;;;4987130;28;20211;-79
2021/01/22 04:53:33;;;;;;;16.50;4.93;;;6.10;99.90;;;;;;4986784;28;20236;-80
2021/01/22 04:56:00;;;;;;;14.33;4.63;;;6.10;99.90;;;;;;4994458;28;20632;-81
2021/01/22 04:58:28;;;;;;;13.27;4.70;;;6.10;99.90;;;;;;5005365;28;20215;-78
2021/01/22 05:00:55;;;;;;;12.77;3.43;;;6.00;99.90;;;;;;5006337;28;20222;-83
2021/01/22 05:03:26;;;;;;;12.40;3.23;;;5.90;99.90;;;;;;5006288;28;20222;-82
2021/01/22 05:05:53;;;;;;;12.03;3.40;;;5.90;99.90;;;;;;5007099;28;20285;-81
2021/01/22 05:08:20;;;;;;;16.97;3.37;;;6.00;99.90;;;;;;5005795;28;20203;-80
2021/01/22 05:10:46;;;;;;;15.80;3.10;;;5.90;99.90;;;;;;5005847;28;20278;-80
2021/01/22 05:13:13;;;;;;;17.77;4.00;;;5.90;99.90;;;;;;5007283;28;20299;-81
2021/01/22 05:15:40;;;;;;;11.67;3.57;;;5.90;99.90;;;;;;5002950;28;20202;-81
2021/01/22 05:18:08;;;;;;;15.80;3.33;;;5.90;99.90;;;;;;5002678;28;20239;-82
2021/01/22 05:20:36;;;;;;;15.13;4.33;;;5.90;99.90;;;;;;5003659;28;20203;-82
2021/01/22 05:23:03;;;;;;;16.17;3.93;;;5.90;99.90;;;;;;5004160;28;20235;-79
2021/01/22 05:25:30;;;;;;;17.20;3.73;;;5.80;99.90;;;;;;5004099;28;20204;-78
2021/01/22 05:27:58;;;;;;;19.53;4.23;;;5.80;99.90;;;;;;4991409;28;20271;-77
2021/01/22 05:30:26;;;;;;;15.00;3.83;;;5.90;99.90;;;;;;4984655;28;20196;-79
2021/01/22 05:33:13;;;;;;;11.70;2.80;;;5.90;99.90;;;;;;4999023;28;20203;-78
2021/01/22 05:35:40;;;;;;;11.73;3.17;;;5.90;99.90;;;;;;5004378;28;20210;-78
2021/01/22 05:38:06;;;;;;;16.67;3.57;;;5.90;99.90;;;;;;5003139;28;20607;-80
2021/01/22 05:40:33;;;;;;;11.97;4.30;;;5.90;99.90;;;;;;5004254;28;20200;-79
2021/01/22 05:42:59;;;;;;;13.93;4.20;;;5.90;99.90;;;;;;5003941;28;20207;-79
2021/01/22 05:45:40;;;;;;;9.90;3.53;;;5.90;99.90;;;;;;5002501;28;20208;-77
2021/01/22 05:48:18;;;;;;;13.33;3.37;;;5.80;99.90;;;;;;5003346;28;20226;-81
2021/01/22 05:50:47;;;;;;;13.73;3.67;;;5.70;99.90;;;;;;5002448;28;20207;-80
2021/01/22 05:53:14;;;;;;;12.93;3.67;;;5.80;99.90;;;;;;4984282;28;20200;-78
2021/01/22 05:55:40;;;;;;;15.37;3.67;;;5.80;99.90;;;;;;4984192;28;20207;-78
2021/01/22 05:58:07;;;;;;;13.80;4.03;;;5.80;99.90;;;;;;4983883;28;20219;-79
2021/01/22 06:00:33;;;;;;;16.80;4.13;;;5.80;99.90;;;;;;4994980;28;20214;-79
2021/01/22 06:02:59;;;;;;;15.37;3.70;;;5.80;99.90;;;;;;5003685;28;20207;-79
2021/01/22 06:05:27;;;;;;;12.97;3.23;;;5.80;99.90;;;;;;5003148;28;20207;-80
2021/01/22 06:08:08;;;;;;;16.73;3.30;;;5.90;99.90;;;;;;4991031;28;20210;-78
2021/01/22 06:10:39;;;;;;;15.27;3.47;;;6.00;99.90;;;;;;4992083;28;20245;-81
2021/01/22 06:13:09;;;;;;;20.47;3.03;;;6.00;99.90;;;;;;5006260;28;20775;-79
2021/01/22 06:15:36;;;;;;;13.17;3.60;;;6.00;99.90;;;;;;5007426;28;20204;-78
2021/01/22 06:18:03;;;;;;;17.97;4.13;;;6.10;99.90;;;;;;5006744;28;20231;-79
2021/01/22 06:20:36;;;;;;;15.63;4.17;;;6.10;99.90;;;;;;5006651;28;20268;-80
2021/01/22 06:23:12;;;;;;;16.67;3.03;;;6.10;99.90;;;;;;5004794;28;20252;-81
2021/01/22 06:25:39;;;;;;;12.73;3.47;;;6.10;99.90;;;;;;5005467;28;20211;-79
2021/01/22 06:28:07;;;;;;;13.60;3.53;;;6.10;99.90;;;;;;5006956;28;20216;-78
2021/01/22 06:30:34;;;;;;;18.10;3.57;;;6.10;99.90;;;;;;5005710;28;20752;-78
2021/01/22 06:33:02;;;;;;;19.77;4.43;;;6.10;99.90;;;;;;5005409;28;20199;-80
2021/01/22 06:35:32;;;;;;;11.40;3.77;;;6.10;99.90;;;;;;5006690;28;20199;-80
2021/01/22 06:38:00;;;;;;;12.17;3.80;;;6.10;99.90;;;;;;5006199;28;20231;-79
2021/01/22 06:40:27;;;;;;;9.90;2.90;;;6.10;99.90;;;;;;5004696;28;20210;-79
2021/01/22 06:42:54;;;;;;;13.50;3.17;;;6.10;99.90;;;;;;5005878;28;20211;-78
2021/01/22 06:45:22;;;;;;;14.53;3.53;;;6.10;99.90;;;;;;4996229;28;20208;-78
2021/01/22 06:47:59;;;;;;;20.13;5.87;;;6.10;99.90;;;;;;4986670;28;20203;-78
2021/01/22 06:50:25;;;;;;;14.43;4.07;;;6.10;99.90;;;;;;4986564;28;20208;-79
2021/01/22 06:53:14;;;;;;;15.17;4.20;;;6.10;99.90;;;;;;4988303;28;20204;-78
2021/01/22 06:56:08;;;;;;;20.33;5.10;;;6.20;99.90;;;;;;5005867;28;20207;-79
2021/01/22 06:58:35;;;;;;;13.90;3.73;;;6.20;99.90;;;;;;5001247;28;20203;-80
2021/01/22 07:01:03;;;;;;;16.03;3.23;;;6.20;99.90;;;;;;5006327;28;20219;-81
2021/01/22 07:03:49;;;;;;;9.57;2.97;;;6.10;99.90;;;;;;5007088;28;20208;-83
2021/01/22 07:06:48;;;;;;;14.67;3.10;;;6.10;99.90;;;;;;5006359;28;20623;-80
2021/01/22 07:09:16;;;;;;;11.87;3.67;;;6.10;99.90;;;;;;5007062;28;20208;-80
2021/01/22 07:11:56;;;;;;;10.70;2.80;;;6.20;99.90;;;;;;5006885;28;20214;-81
2021/01/22 07:14:40;;;;;;;17.17;3.23;;;6.20;99.90;;;;;;5007520;28;20496;-81
2021/01/22 07:17:20;;;;;;;10.40;2.80;;;6.20;99.90;;;;;;5006389;28;20325;-80
2021/01/22 07:19:55;;;;;;;13.83;2.80;;;6.20;99.90;;;;;;5005637;28;20612;-78
2021/01/22 07:22:22;;;;;;;13.77;2.90;;;6.20;99.90;;;;;;5005764;28;20251;-79
2021/01/22 07:24:52;;;;;;;15.70;2.77;;;6.20;99.90;;;;;;4988869;28;20290;-82
2021/01/22 07:27:18;;;;;;;13.57;3.37;;;6.10;99.90;;;;;;4985441;28;20204;-80
2021/01/22 07:30:09;;;;;;;21.53;3.10;;;6.10;99.90;;;;;;4985128;28;20235;-81
2021/01/22 07:32:37;;;;;;;17.77;3.70;;;6.10;99.90;;;;;;5006317;28;20219;-79
2021/01/22 07:35:23;;;;;;;12.97;3.30;;;6.10;99.90;;;;;;5018170;28;20581;-80
2021/01/22 07:37:50;;;;;;;8.60;2.90;;;6.10;99.90;;;;;;5001808;28;20212;-79
2021/01/22 07:40:18;;;;;;;14.33;2.80;;;6.10;99.90;;;;;;5002059;28;20847;-81
2021/01/22 07:42:45;;;;;;;13.03;2.90;;;6.10;99.90;;;;;;5002241;28;20210;-82
2021/01/22 07:45:13;;;;;;;8.43;2.67;;;6.10;99.90;;;;;;5020577;28;20210;-80
2021/01/22 07:47:41;;;;;;;15.00;3.60;;;6.00;99.90;;;;;;5022098;28;20214;-80
2021/01/22 07:50:09;;;;;;;11.80;2.90;;;6.00;99.90;;;;;;5020477;28;20210;-80
2021/01/22 07:52:41;;;;;;;9.13;3.00;;;5.90;99.90;;;;;;5022377;28;20603;-79
2021/01/22 07:55:15;;;;;;;14.63;3.73;;;5.90;99.90;;;;;;5008368;28;20234;-79
2021/01/22 07:57:41;;;;;;;12.97;3.80;;;5.80;99.90;;;;;;5001029;28;20257;-78
2021/01/22 08:00:09;;;;;;;14.60;2.93;;;5.80;99.90;;;;;;5001894;28;20282;-79
2021/01/22 08:02:35;;;;;;;12.80;3.13;;;5.80;99.90;;;;;;5002129;28;20286;-79
2021/01/22 08:05:03;;;;;;;13.67;2.90;;;5.80;99.90;;;;;;5002627;28;20199;-78
2021/01/22 08:07:34;;;;;;;10.60;2.80;;;5.80;99.90;;;;;;5001585;28;20457;-78
2021/01/22 08:10:01;;;;;;;13.67;3.30;;;5.80;99.90;;;;;;5002975;28;20214;-78
2021/01/22 08:12:28;;;;;;;11.23;3.17;;;5.90;99.90;;;;;;5001401;28;20221;-77
2021/01/22 08:14:54;;;;;;;12.30;4.00;;;5.90;99.90;;;;;;5002413;28;20243;-80
2021/01/22 08:17:21;;;;;;;13.00;2.80;;;5.90;99.90;;;;;;5002353;28;20505;-79
2021/01/22 08:19:48;;;;;;;9.10;3.20;;;5.80;99.90;;;;;;5018628;28;20202;-81
2021/01/22 08:22:15;;;;;;;11.37;2.73;;;5.90;99.90;;;;;;5021600;28;20210;-81
2021/01/22 08:24:46;;;;;;;13.00;2.60;;;5.90;99.90;;;;;;5020617;28;20293;-79
2021/01/22 08:27:14;;;;;;;11.73;2.83;;;5.90;99.90;;;;;;5021169;28;20767;-81
2021/01/22 08:29:42;;;;;;;18.07;3.67;;;5.90;99.90;;;;;;5020654;28;20661;-78
2021/01/22 08:32:11;;;;;;;13.90;3.03;;;5.90;99.90;;;;;;5004704;28;20215;-82
2021/01/22 08:34:38;;;;;;;11.63;3.07;;;5.80;99.90;;;;;;5015455;28;20243;-79
2021/01/22 08:37:08;;;;;;;11.40;3.20;;;5.80;99.90;;;;;;5021578;28;20198;-80
2021/01/22 08:39:52;;;;;;;13.43;3.47;;;5.80;99.90;;;;;;5040717;28;20214;-80
2021/01/22 08:42:19;;;;;;;23.00;5.57;;;5.80;99.90;;;;;;5040302;28;20307;-80
2021/01/22 08:44:58;;;;;;;11.27;3.30;;;5.80;99.90;;;;;;5021817;28;20207;-81
2021/01/22 08:47:24;;;;;;;14.67;4.50;;;5.80;99.90;;;;;;5007621;28;20206;-82
2021/01/22 08:49:56;;;;;;;21.43;4.77;;;5.80;99.90;;;;;;5012660;28;20272;-82
2021/01/22 08:52:23;;;;;;;10.53;3.50;;;5.80;99.90;;;;;;5027273;28;20225;-79
2021/01/22 08:54:52;;;;;;;14.50;3.60;;;5.80;99.90;;;;;;5026590;28;20230;-79
2021/01/22 08:57:19;;;;;;;16.80;3.30;;;5.80;99.90;;;;;;5008265;28;20970;-80
2021/01/22 08:59:52;;;;;;;19.97;4.00;;;5.90;99.90;;;;;;5007649;28;20570;-81
2021/01/22 09:02:38;;;;;;;16.33;4.00;;;5.90;99.90;;;;;;5010063;28;20365;-80
2021/01/22 09:05:10;;;;;;;10.87;3.33;;;5.90;99.90;;;;;;5027614;28;20209;-80
2021/01/22 09:07:36;;;;;;;11.93;2.93;;;6.00;99.90;;;;;;5025933;28;20304;-81
2021/01/22 09:10:04;;;;;;;11.07;2.43;;;6.10;99.90;;;;;;5012124;28;20608;-80
2021/01/22 09:12:32;;;;;;;12.47;2.90;;;6.10;99.90;;;;;;5007225;28;20207;-81
2021/01/22 09:15:00;;;;;;;11.83;2.97;;;6.20;99.90;;;;;;5007432;28;20632;-83
2021/01/22 09:17:35;;;;;;;10.23;2.93;;;6.20;99.90;;;;;;5007726;28;20203;-82
2021/01/22 09:20:04;;;;;;;13.53;3.37;;;6.20;99.90;;;;;;5007336;28;20225;-78
2021/01/22 09:22:31;;;;;;;7.10;2.50;;;6.30;99.90;;;;;;5006632;28;20302;-79
2021/01/22 09:24:59;;;;;;;9.37;2.43;;;6.30;99.90;;;;;;5005423;28;20210;-78
2021/01/22 09:27:25;;;;;;;10.03;3.10;;;6.30;99.90;;;;;;5006013;28;20206;-79
2021/01/22 09:29:53;;;;;;;18.57;3.50;;;6.30;99.90;;;;;;5005621;28;20226;-78
2021/01/22 09:32:20;;;;;;;11.03;2.63;;;6.40;99.90;;;;;;5004986;28;20216;-79
2021/01/22 09:34:46;;;;;;;8.67;3.50;;;6.50;99.90;;;;;;5004693;28;20312;-79
2021/01/22 09:37:12;;;;;;;17.77;4.03;;;6.50;99.90;;;;;;5005538;28;20208;-80
2021/01/22 09:39:38;;;;;;;10.80;2.57;;;6.50;99.90;;;;;;5007013;28;20643;-79
2021/01/22 09:42:05;;;;;;;10.67;3.20;;;6.50;99.90;;;;;;5006616;28;20870;-78
2021/01/22 09:44:32;;;;;;;12.60;2.37;;;6.60;99.90;;;;;;5005508;28;20951;-77
2021/01/22 09:46:59;;;;;;;12.83;2.73;;;6.60;99.90;;;;;;5025314;28;20214;-78
2021/01/22 09:49:26;;;;;;;17.60;3.03;;;6.70;99.90;;;;;;5025032;28;20743;-79
2021/01/22 09:51:52;;;;;;;21.13;5.60;;;6.70;99.90;;;;;;5025399;28;20268;-78
2021/01/22 09:54:19;;;;;;;16.37;2.70;;;6.70;99.90;;;;;;5022764;28;20227;-80
2021/01/22 09:56:45;;;;;;;10.60;2.80;;;6.70;99.90;;;;;;5005558;28;20245;-80
2021/01/22 09:59:11;;;;;;;14.90;3.40;;;6.70;99.90;;;;;;5006210;28;20215;-80
2021/01/22 10:01:38;;;;;;;17.10;3.43;;;6.70;99.90;;;;;;5005859;28;20195;-79
2021/01/22 10:04:05;;;;;;;14.17;3.57;;;6.80;99.90;;;;;;5006319;28;20471;-81
2021/01/22 10:06:32;;;;;;;18.43;3.33;;;6.80;99.90;;;;;;5007781;28;20225;-80
2021/01/22 10:08:59;;;;;;;17.13;3.30;;;6.80;99.90;;;;;;5006890;28;20916;-82
2021/01/22 10:11:25;;;;;;;12.37;3.70;;;6.80;99.90;;;;;;5008080;28;20373;-82
2021/01/22 10:13:56;;;;;;;9.77;2.63;;;6.80;99.90;;;;;;5020635;28;20668;-82
2021/01/22 10:16:23;;;;;;;10.67;2.57;;;6.90;99.90;;;;;;5024322;28;20210;-86
2021/01/22 10:18:51;;;;;;;9.77;2.83;;;6.80;99.90;;;;;;5007349;28;20206;-84
2021/01/22 10:21:18;;;;;;;15.90;2.90;;;6.90;99.90;;;;;;5006473;28;20209;-81
2021/01/22 10:23:46;;;;;;;10.67;3.03;;;6.90;99.90;;;;;;5005950;28;20204;-80
2021/01/22 10:26:12;;;;;;;13.77;3.57;;;6.90;99.90;;;;;;5006978;28;20218;-81
2021/01/22 10:28:39;;;;;;;17.40;3.97;;;6.90;99.90;;;;;;5005602;28;20258;-80
2021/01/22 10:31:05;;;;;;;20.23;3.50;;;7.00;99.90;;;;;;5005291;28;20227;-81
2021/01/22 10:33:31;;;;;;;14.63;3.83;;;7.00;99.90;;;;;;5006560;28;20235;-84
2021/01/22 10:35:58;;;;;;;16.50;3.73;;;7.00;99.90;;;;;;5005741;28;20199;-81
2021/01/22 10:38:26;;;;;;;18.47;3.23;;;7.00;99.90;;;;;;5004685;28;20215;-81
2021/01/22 10:40:53;;;;;;;15.17;3.43;;;7.10;99.90;;;;;;5005384;28;20207;-81
2021/01/22 10:43:20;;;;;;;14.27;3.30;;;7.10;99.90;;;;;;5004766;28;20211;-81
2021/01/22 10:45:46;;;;;;;14.20;3.53;;;7.10;99.90;;;;;;5005150;28;20203;-80
2021/01/22 10:48:12;;;;;;;12.93;3.43;;;7.20;99.90;;;;;;5005183;28;20210;-81
2021/01/22 10:50:38;;;;;;;15.60;3.30;;;7.30;99.90;;;;;;5005805;28;20206;-80
2021/01/22 10:53:05;;;;;;;14.60;3.40;;;7.30;99.90;;;;;;5006342;28;20256;-80
2021/01/22 10:55:32;;;;;;;16.93;3.70;;;7.40;99.90;;;;;;5005948;28;20234;-80
2021/01/22 10:57:58;;;;;;;13.37;3.30;;;7.50;99.90;;;;;;5006647;28;20208;-81
2021/01/22 11:00:25;;;;;;;17.07;3.87;;;7.50;99.90;;;;;;5025406;28;20206;-80
2021/01/22 11:02:51;;;;;;;18.97;3.30;;;7.50;99.90;;;;;;5024961;28;20198;-81
2021/01/22 11:05:18;;;;;;;12.60;2.27;;;7.50;99.90;;;;;;5025304;28;20607;-80
2021/01/22 11:07:44;;;;;;;14.00;2.60;;;7.60;99.90;;;;;;5019639;28;20261;-81
2021/01/22 11:10:11;;;;;;;10.23;2.97;;;7.70;99.90;;;;;;5005482;28;20214;-80
2021/01/22 11:12:38;;;;;;;20.67;3.30;;;7.70;99.90;;;;;;5014583;28;20204;-80
2021/01/22 11:15:06;;;;;;;16.23;3.90;;;7.80;99.90;;;;;;5005647;28;20230;-81
2021/01/22 11:17:32;;;;;;;12.67;2.93;;;7.80;99.90;;;;;;5006037;28;20207;-81
2021/01/22 11:20:02;;;;;;;9.80;3.20;;;7.80;99.90;;;;;;5020930;28;20302;-82
2021/01/22 11:22:28;;;;;;;13.93;3.73;;;7.70;99.90;;;;;;5025631;28;21037;-80
2021/01/22 11:24:55;;;;;;;14.13;3.37;;;7.70;99.90;;;;;;5025471;28;20194;-80
2021/01/22 11:27:21;;;;;;;8.97;2.40;;;7.70;99.90;;;;;;5021858;28;20211;-82
2021/01/22 11:29:48;;;;;;;15.57;3.00;;;7.70;99.90;;;;;;5006696;28;20219;-80
2021/01/22 11:32:15;;;;;;;12.13;3.17;;;7.70;99.90;;;;;;5004091;28;20595;-80
2021/01/22 11:34:41;;;;;;;8.80;2.37;;;7.70;99.90;;;;;;5004070;28;20330;-81
2021/01/22 11:37:07;;;;;;;14.27;3.97;;;7.80;99.90;;;;;;5006704;28;20218;-82
2021/01/22 11:39:35;;;;;;;21.07;3.40;;;7.80;99.90;;;;;;5006608;28;20245;-81
2021/01/22 11:42:02;;;;;;;15.43;4.10;;;7.90;99.90;;;;;;5006581;28;20290;-81
2021/01/22 11:44:28;;;;;;;15.53;3.97;;;7.90;99.90;;;;;;5009073;28;20198;-81
2021/01/22 11:46:55;;;;;;;10.07;3.20;;;8.00;99.90;;;;;;5007529;28;20476;-82
2021/01/22 11:49:22;;;;;;;11.90;3.30;;;8.00;99.90;;;;;;5009133;28;20211;-79
2021/01/22 11:51:48;;;;;;;11.23;3.67;;;8.00;99.90;;;;;;5006325;28;20207;-80
2021/01/22 11:54:14;;;;;;;10.40;3.37;;;8.10;99.90;;;;;;5006479;28;20219;-79
2021/01/22 11:56:41;;;;;;;9.10;3.37;;;8.00;99.90;;;;;;5004415;28;20211;-80
2021/01/22 11:59:10;;;;;;;11.47;3.17;;;8.00;99.90;;;;;;5003777;28;20258;-80
2021/01/22 12:01:37;;;;;;;11.53;3.07;;;8.00;99.90;;;;;;5003702;28;20208;-79
2021/01/22 12:04:04;;;;;;;16.13;3.20;;;8.00;99.90;;;;;;5002807;28;20234;-79
2021/01/22 12:06:30;;;;;;;12.10;3.67;;;8.00;99.90;;;;;;5011839;28;20265;-79
2021/01/22 12:08:57;;;;;;;12.97;3.90;;;8.00;99.90;;;;;;5022955;28;20207;-79
2021/01/22 12:11:23;;;;;;;12.47;3.70;;;8.10;99.90;;;;;;5011958;28;20214;-79
2021/01/22 12:13:49;;;;;;;11.17;2.90;;;8.10;99.90;;;;;;5003040;28;20255;-80
2021/01/22 12:16:15;;;;;;;13.17;3.33;;;8.10;99.90;;;;;;5003522;28;20755;-79
2021/01/22 12:18:42;;;;;;;10.47;2.93;;;8.10;99.90;;;;;;5003044;28;20764;-79
2021/01/22 12:21:10;;;;;;;13.43;3.33;;;8.10;99.90;;;;;;5006274;28;20273;-80
2021/01/22 12:23:36;;;;;;;15.97;3.07;;;8.10;99.90;;;;;;5017796;28;20514;-79
2021/01/22 12:26:02;;;;;;;15.23;3.97;;;8.10;99.90;;;;;;5026661;28;20206;-79
2021/01/22 12:28:29;;;;;;;12.70;3.10;;;8.10;99.90;;;;;;5026374;28;20226;-80
2021/01/22 12:30:55;;;;;;;12.90;3.60;;;8.10;99.90;;;;;;5025256;28;20198;-79
2021/01/22 12:33:21;;;;;;;9.40;3.13;;;8.10;99.90;;;;;;5006628;28;20235;-79
2021/01/22 12:35:49;;;;;;;15.43;3.97;;;8.10;99.90;;;;;;5007193;28;20461;-79
2021/01/22 12:38:17;;;;;;;15.73;4.10;;;8.10;99.90;;;;;;5006989;28;20207;-79
2021/01/22 12:40:43;;;;;;;10.67;3.53;;;8.00;99.90;;;;;;5006328;28;20203;-79
2021/01/22 12:43:10;;;;;;;16.80;4.03;;;8.00;99.90;;;;;;5006884;28;20210;-81
2021/01/22 12:45:37;;;;;;;13.07;3.43;;;8.00;99.90;;;;;;5006595;28;20227;-79
2021/01/22 12:48:04;;;;;;;14.50;3.67;;;8.10;99.90;;;;;;5007017;28;20549;-81
2021/01/22 12:50:30;;;;;;;13.87;4.27;;;8.10;99.90;;;;;;5005234;28;20579;-82
2021/01/22 12:52:57;;;;;;;13.83;3.13;;;8.00;99.90;;;;;;5005023;28;20828;-80
2021/01/22 12:55:24;;;;;;;11.83;3.20;;;8.00;99.90;;;;;;5005532;28;20223;-79
2021/01/22 12:57:50;;;;;;;12.80;3.23;;;8.00;99.90;;;;;;5005308;28;20211;-80
2021/01/22 13:00:18;;;;;;;12.20;4.20;;;7.90;99.90;;;;;;5005261;28;20269;-79
2021/01/22 13:02:45;;;;;;;20.20;4.80;;;8.00;99.90;;;;;;5005342;28;20317;-81